Wejh, Saudi Arabia
Current Conditions -  °F | °C
As of 11:00 PM on Sunday 21 Dec 2014 (Local Time) from OEWJ Reporting Station
Clear Clear  
Wind Chill: 68°   Ceiling: Unl
Heat Index: 68°   Visibility: 6mi
Dew Point: 55°   Wind: 7mph
Humidity: 64%   Direction: 360°N
Pressure: 30"   Gusts: NA
Location:  26.2°N, 36.48°E
Report Text: OEWJ 212000Z 36006KT CAVOK 20/13 Q1016 NOSIG
Loading
Personal Weather Stations






























Interactive Weather Map New forecast layout! Learn more

10-Day Weather Forecast

Advertisements
Track Severe Weather on mobile